Time;durP1;ratioP1;P1;durP2;ratioP2;P2;SDS_P1;SDS_P2;PMS_P1;PMS_P2;Temp;Humidity;BMP_temperature;BMP_pressure;BME280_temperature;BME280_humidity;BME280_pressure;Samples;Min_cycle;Max_cycle;Signal;HPM_P1;HPM_P2
2024/03/25 18:20:48;;;;;;;9.40;5.62;;;;;;;;;;4442772;32;20477;-74
2024/03/25 18:23:14;;;;;;;8.48;4.80;;;;;;;;;;4428182;32;20072;-76
2024/03/25 18:25:39;;;;;;;10.95;5.45;;;;;;;;;;4432006;32;20430;-75
2024/03/25 18:28:06;;;;;;;12.25;5.93;;;;;;;;;;4425962;32;20037;-75
2024/03/25 18:30:36;;;;;;;10.15;5.18;;;;;;;;;;4430459;32;20026;-75
2024/03/25 18:33:07;;;;;;;10.25;5.95;;;;;;;;;;4418781;32;20041;-75
2024/03/25 18:35:35;;;;;;;11.27;5.70;;;;;;;;;;4416391;32;20029;-75
2024/03/25 18:38:01;;;;;;;13.82;6.68;;;;;;;;;;4430122;32;20045;-75
2024/03/25 18:40:29;;;;;;;13.62;6.32;;;;;;;;;;4429907;32;20136;-75
2024/03/25 18:42:54;;;;;;;11.27;6.43;;;;;;;;;;4431258;32;20034;-76
2024/03/25 18:45:19;;;;;;;11.77;6.47;;;;;;;;;;4430737;32;20117;-75
2024/03/25 18:47:45;;;;;;;12.93;6.30;;;;;;;;;;4431495;32;20046;-76
2024/03/25 18:50:10;;;;;;;;;;;;;;;;;;4430475;32;20410;-76
2024/03/25 18:52:37;;;;;;;10.65;5.80;;;;;;;;;;4430376;32;19945;-75
2024/03/25 18:55:02;;;;;;;13.48;6.87;;;;;;;;;;4431481;32;20203;-75
2024/03/25 18:57:28;;;;;;;15.68;7.30;;;;;;;;;;4431043;32;20214;-74
2024/03/25 18:59:56;;;;;;;;;;;;;;;;;;4429304;32;20093;-77
2024/03/25 19:02:36;;;;;;;14.57;6.60;;;;;;;;;;4428370;32;19964;-75
2024/03/25 19:05:01;;;;;;;14.50;7.70;;;;;;;;;;4431009;32;20048;-76
2024/03/25 19:07:26;;;;;;;11.20;6.43;;;;;;;;;;4429405;32;20046;-76
2024/03/25 19:09:53;;;;;;;14.90;6.80;;;;;;;;;;4429371;32;20080;-76
2024/03/25 19:12:18;;;;;;;15.85;7.25;;;;;;;;;;4425564;32;20434;-75
2024/03/25 19:14:43;;;;;;;;;;;;;;;;;;4418099;32;20159;-74
2024/03/25 19:17:09;;;;;;;11.15;6.25;;;;;;;;;;4445523;32;20017;-75
2024/03/25 19:19:35;;;;;;;13.15;7.22;;;;;;;;;;4445485;32;20563;-76
2024/03/25 19:22:00;;;;;;;11.52;7.78;;;;;;;;;;4443535;32;20402;-77
2024/03/25 19:24:27;;;;;;;;;;;;;;;;;;4445549;32;20013;-76
2024/03/25 19:26:52;;;;;;;13.02;6.12;;;;;;;;;;4443658;32;19956;-76
2024/03/25 19:29:20;;;;;;;;;;;;;;;;;;4441640;32;20095;-77
2024/03/25 19:31:45;;;;;;;12.88;6.43;;;;;;;;;;4431772;32;19956;-75
2024/03/25 19:34:10;;;;;;;14.13;6.57;;;;;;;;;;4448540;32;20033;-75
2024/03/25 19:36:35;;;;;;;;;;;;;;;;;;4442785;32;20025;-75
2024/03/25 19:39:03;;;;;;;11.35;6.80;;;;;;;;;;4440989;32;20309;-75
2024/03/25 19:41:33;;;;;;;15.20;7.22;;;;;;;;;;4428374;32;20096;-75
2024/03/25 19:44:00;;;;;;;11.63;6.53;;;;;;;;;;4449984;32;20080;-75
2024/03/25 19:46:26;;;;;;;15.93;7.07;;;;;;;;;;4449454;32;20075;-75
2024/03/25 19:48:54;;;;;;;12.52;6.25;;;;;;;;;;4434729;32;20088;-76
2024/03/25 19:51:19;;;;;;;13.05;6.32;;;;;;;;;;4433928;32;20045;-75
2024/03/25 19:53:51;;;;;;;16.60;6.47;;;;;;;;;;4434958;32;20368;-75
2024/03/25 19:56:16;;;;;;;12.93;6.95;;;;;;;;;;4447912;32;20326;-75
2024/03/25 19:58:42;;;;;;;;;;;;;;;;;;4447512;32;20146;-75
2024/03/25 20:01:08;;;;;;;20.48;7.68;;;;;;;;;;4449696;32;19960;-74
2024/03/25 20:03:34;;;;;;;;;;;;;;;;;;4449411;32;20036;-76
2024/03/25 20:06:00;;;;;;;11.07;6.55;;;;;;;;;;4435382;32;19952;-75
2024/03/25 20:08:25;;;;;;;11.68;6.22;;;;;;;;;;4422489;32;20041;-75
2024/03/25 20:10:51;;;;;;;13.90;6.40;;;;;;;;;;4433805;32;20477;-75
2024/03/25 20:13:19;;;;;;;;;;;;;;;;;;4436628;32;20033;-76
2024/03/25 20:15:44;;;;;;;10.38;6.72;;;;;;;;;;4437547;32;19944;-75
2024/03/25 20:18:10;;;;;;;;;;;;;;;;;;4443045;32;20030;-74
2024/03/25 20:20:35;;;;;;;14.93;6.72;;;;;;;;;;4443138;32;19936;-74
2024/03/25 20:23:20;;;;;;;14.30;7.05;;;;;;;;;;4445042;32;20402;-75
2024/03/25 20:26:07;;;;;;;13.75;6.82;;;;;;;;;;4433196;32;20038;-74
2024/03/25 20:28:38;;;;;;;15.63;6.70;;;;;;;;;;4428635;32;20034;-75
2024/03/25 20:31:18;;;;;;;12.88;6.35;;;;;;;;;;4429812;32;20060;-74
2024/03/25 20:33:44;;;;;;;11.18;7.10;;;;;;;;;;4443007;32;20037;-76
2024/03/25 20:36:09;;;;;;;;;;;;;;;;;;4449379;32;20059;-75
2024/03/25 20:38:34;;;;;;;12.68;6.53;;;;;;;;;;4446973;32;19955;-75
2024/03/25 20:41:02;;;;;;;10.80;5.85;;;;;;;;;;4448291;32;20064;-76
2024/03/25 20:43:28;;;;;;;16.45;6.75;;;;;;;;;;4444236;32;20146;-75
2024/03/25 20:45:53;;;;;;;;;;;;;;;;;;4434019;32;20026;-75
2024/03/25 20:48:18;;;;;;;16.60;6.80;;;;;;;;;;4440734;32;19987;-76
2024/03/25 20:50:43;;;;;;;;;;;;;;;;;;4449516;32;20055;-75
2024/03/25 20:53:09;;;;;;;15.32;6.62;;;;;;;;;;4422089;32;20344;-75
2024/03/25 20:55:35;;;;;;;15.75;6.70;;;;;;;;;;4433406;32;20049;-75
2024/03/25 20:58:03;;;;;;;;;;;;;;;;;;4434716;32;20080;-75
2024/03/25 21:00:28;;;;;;;13.35;6.53;;;;;;;;;;4441732;32;20429;-75
2024/03/25 21:02:53;;;;;;;;;;;;;;;;;;4443408;32;20109;-76
2024/03/25 21:05:20;;;;;;;16.17;6.80;;;;;;;;;;4440360;32;19984;-75
2024/03/25 21:07:47;;;;;;;15.88;6.62;;;;;;;;;;4448867;32;20064;-74
2024/03/25 21:10:12;;;;;;;15.50;7.30;;;;;;;;;;4447638;32;20125;-76
2024/03/25 21:12:37;;;;;;;;;;;;;;;;;;4446103;32;20527;-73
2024/03/25 21:15:09;;;;;;;14.85;6.47;;;;;;;;;;4437593;32;20308;-75
2024/03/25 21:17:34;;;;;;;14.95;6.55;;;;;;;;;;4449092;32;20395;-75
2024/03/25 21:19:59;;;;;;;;;;;;;;;;;;4448855;32;20083;-75
2024/03/25 21:22:25;;;;;;;14.63;5.57;;;;;;;;;;4449097;32;20000;-74
2024/03/25 21:24:51;;;;;;;14.35;7.05;;;;;;;;;;4431931;32;20073;-75
2024/03/25 21:27:16;;;;;;;9.50;5.57;;;;;;;;;;4419101;32;20046;-75
2024/03/25 21:29:42;;;;;;;;;;;;;;;;;;4433108;32;20399;-75
2024/03/25 21:32:10;;;;;;;11.05;5.93;;;;;;;;;;4434710;32;19945;-75
2024/03/25 21:34:35;;;;;;;14.65;6.32;;;;;;;;;;4434272;32;20057;-75
2024/03/25 21:37:00;;;;;;;;;;;;;;;;;;4442670;32;20060;-75
2024/03/25 21:39:25;;;;;;;18.65;6.00;;;;;;;;;;4433683;32;20326;-75
2024/03/25 21:41:51;;;;;;;15.02;6.10;;;;;;;;;;4446997;32;20060;-76
2024/03/25 21:44:16;;;;;;;;;;;;;;;;;;4448782;32;20089;-76
2024/03/25 21:46:41;;;;;;;14.63;5.37;;;;;;;;;;4448132;32;19940;-76
2024/03/25 21:49:06;;;;;;;;;;;;;;;;;;4448471;32;20125;-75
2024/03/25 21:51:32;;;;;;;14.15;5.62;;;;;;;;;;4443674;32;19951;-76
2024/03/25 21:53:57;;;;;;;13.48;5.47;;;;;;;;;;4434530;32;20413;-75
2024/03/25 21:56:22;;;;;;;;;;;;;;;;;;4437663;32;20025;-75
2024/03/25 21:58:47;;;;;;;19.05;5.18;;;;;;;;;;4437966;32;19967;-76
2024/03/25 22:01:12;;;;;;;10.73;4.25;;;;;;;;;;4433193;32;20033;-75
2024/03/25 22:03:37;;;;;;;;;;;;;;;;;;4443491;32;20384;-75
2024/03/25 22:06:03;;;;;;;9.90;4.70;;;;;;;;;;4447441;32;20493;-75
2024/03/25 22:08:28;;;;;;;16.70;5.05;;;;;;;;;;4448670;32;20148;-75
2024/03/25 22:10:53;;;;;;;13.45;4.95;;;;;;;;;;4443674;32;20045;-75
2024/03/25 22:13:18;;;;;;;16.12;5.62;;;;;;;;;;4439146;32;20033;-75
2024/03/25 22:15:44;;;;;;;;;;;;;;;;;;4440404;32;20057;-74
2024/03/25 22:18:09;;;;;;;13.57;4.87;;;;;;;;;;4439143;32;19968;-76
2024/03/25 22:20:36;;;;;;;12.13;4.12;;;;;;;;;;4447975;32;20369;-76
2024/03/25 22:23:02;;;;;;;11.98;4.57;;;;;;;;;;4436229;32;20106;-75
2024/03/25 22:25:27;;;;;;;;;;;;;;;;;;4446854;32;20546;-75
2024/03/25 22:27:52;;;;;;;12.75;4.10;;;;;;;;;;4448137;32;19953;-76
2024/03/25 22:30:18;;;;;;;11.07;3.87;;;;;;;;;;4448341;32;20440;-75
2024/03/25 22:32:43;;;;;;;;;;;;;;;;;;4449151;32;20045;-75
2024/03/25 22:35:08;;;;;;;12.23;4.82;;;;;;;;;;4448687;32;20027;-75
2024/03/25 22:37:33;;;;;;;15.23;4.57;;;;;;;;;;4446978;32;20085;-75
2024/03/25 22:39:58;;;;;;;;;;;;;;;;;;4448808;32;20481;-76
2024/03/25 22:42:23;;;;;;;10.40;4.20;;;;;;;;;;4433484;32;19932;-75
2024/03/25 22:44:50;;;;;;;;;;;;;;;;;;4433873;32;20425;-76
2024/03/25 22:47:15;;;;;;;12.32;4.68;;;;;;;;;;4432597;32;19952;-76
2024/03/25 22:49:41;;;;;;;;;;;;;;;;;;4433283;32;20030;-75
2024/03/25 22:52:06;;;;;;;11.15;4.70;;;;;;;;;;4437537;32;19982;-75
2024/03/25 22:54:32;;;;;;;;;;;;;;;;;;4448720;32;20137;-75
2024/03/25 22:56:57;;;;;;;12.50;4.95;;;;;;;;;;4447944;32;19933;-76
2024/03/25 22:59:22;;;;;;;;;;;;;;;;;;4435581;32;20160;-75
2024/03/25 23:01:47;;;;;;;12.88;5.15;;;;;;;;;;4432120;32;20285;-75
2024/03/25 23:04:13;;;;;;;;;;;;;;;;;;4433481;32;20034;-75
2024/03/25 23:06:38;;;;;;;14.80;4.82;;;;;;;;;;4433972;32;19981;-75
2024/03/25 23:09:03;;;;;;;;;;;;;;;;;;4435842;32;20125;-74
2024/03/25 23:11:28;;;;;;;11.80;4.70;;;;;;;;;;4444254;32;19968;-74
2024/03/25 23:13:53;;;;;;;11.63;5.07;;;;;;;;;;4440332;32;20470;-75
2024/03/25 23:16:18;;;;;;;;;;;;;;;;;;4444321;32;20029;-75
2024/03/25 23:18:44;;;;;;;13.95;4.85;;;;;;;;;;4449259;32;19984;-74
2024/03/25 23:21:09;;;;;;;16.25;5.28;;;;;;;;;;4437861;32;20358;-75
2024/03/25 23:23:34;;;;;;;;;;;;;;;;;;4435955;32;20069;-75
2024/03/25 23:25:59;;;;;;;19.40;5.25;;;;;;;;;;4450974;32;19952;-76
2024/03/25 23:28:24;;;;;;;11.68;4.20;;;;;;;;;;4451257;32;20441;-76
2024/03/25 23:30:51;;;;;;;;;;;;;;;;;;4449427;32;20052;-76
2024/03/25 23:33:16;;;;;;;11.30;4.53;;;;;;;;;;4450157;32;19953;-75
2024/03/25 23:35:42;;;;;;;;;;;;;;;;;;4450610;32;20323;-75
2024/03/25 23:38:07;;;;;;;12.70;4.15;;;;;;;;;;4450383;32;19980;-73
2024/03/25 23:40:32;;;;;;;;;;;;;;;;;;4437903;32;20085;-75
2024/03/25 23:42:58;;;;;;;13.80;4.40;;;;;;;;;;4435012;32;19981;-75
2024/03/25 23:45:23;;;;;;;8.40;4.32;;;;;;;;;;4435464;32;20361;-76
2024/03/25 23:47:48;;;;;;;;;;;;;;;;;;4434593;32;20055;-76
2024/03/25 23:50:13;;;;;;;15.30;4.85;;;;;;;;;;4434057;32;19937;-76
2024/03/25 23:52:39;;;;;;;14.02;5.00;;;;;;;;;;4448369;32;20685;-76
2024/03/25 23:55:05;;;;;;;12.20;4.28;;;;;;;;;;4449198;32;20574;-76
2024/03/25 23:57:30;;;;;;;17.35;4.70;;;;;;;;;;4450384;32;20424;-75
2024/03/25 23:59:55;;;;;;;;;;;;;;;;;;4439266;32;20475;-75
